Time;durP1;ratioP1;P1;durP2;ratioP2;P2;SDS_P1;SDS_P2;PMS_P1;PMS_P2;Temp;Humidity;BMP_temperature;BMP_pressure;BME280_temperature;BME280_humidity;BME280_pressure;Samples;Min_cycle;Max_cycle;Signal;HPM_P1;HPM_P2
2023/01/08 00:00:41;;;;;;;3.63;3.33;;;9.30;99.90;;;;;;5036890;28;20561;-65
2023/01/08 00:03:07;;;;;;;4.90;3.90;;;9.30;99.90;;;;;;5028119;28;20219;-57
2023/01/08 00:05:33;;;;;;;4.13;3.73;;;9.30;99.90;;;;;;5038359;28;20620;-58
2023/01/08 00:07:58;;;;;;;4.37;3.97;;;9.20;99.90;;;;;;5037810;28;20197;-73
2023/01/08 00:10:24;;;;;;;3.97;3.40;;;9.20;99.90;;;;;;5035486;28;20566;-58
2023/01/08 00:12:49;;;;;;;3.67;3.37;;;9.30;99.90;;;;;;5034384;28;20721;-58
2023/01/08 00:15:14;;;;;;;4.40;4.00;;;9.30;99.90;;;;;;5039198;28;20510;-58
2023/01/08 00:17:40;;;;;;;4.07;3.67;;;9.30;99.90;;;;;;5039675;28;20401;-58
2023/01/08 00:20:06;;;;;;;4.47;3.30;;;9.20;99.90;;;;;;5039155;28;20199;-59
2023/01/08 00:22:31;;;;;;;4.03;3.73;;;9.10;99.90;;;;;;5036414;28;20242;-57
2023/01/08 00:24:57;;;;;;;5.47;4.03;;;9.10;99.90;;;;;;5027600;28;20198;-60
2023/01/08 00:27:22;;;;;;;5.87;3.90;;;9.00;99.90;;;;;;5038392;28;20208;-60
2023/01/08 00:29:48;;;;;;;3.90;3.47;;;9.00;99.90;;;;;;5038834;28;20206;-59
2023/01/08 00:32:13;;;;;;;4.27;3.87;;;8.90;99.90;;;;;;5038402;28;20664;-59
2023/01/08 00:34:39;;;;;;;4.60;4.20;;;8.90;99.90;;;;;;5038639;28;20198;-61
2023/01/08 00:37:04;;;;;;;4.80;4.40;;;8.80;99.90;;;;;;5036217;28;20206;-59
2023/01/08 00:39:29;;;;;;;3.90;3.60;;;8.80;99.90;;;;;;5037928;28;20218;-58
2023/01/08 00:41:55;;;;;;;3.73;3.43;;;8.70;99.90;;;;;;5038084;28;20218;-59
2023/01/08 00:44:20;;;;;;;4.07;3.67;;;8.70;99.90;;;;;;5038287;28;20243;-57
2023/01/08 00:46:46;;;;;;;3.87;3.47;;;8.60;99.90;;;;;;5038349;28;20199;-59
2023/01/08 00:49:11;;;;;;;3.70;3.40;;;8.60;99.90;;;;;;5037940;28;20278;-59
2023/01/08 00:51:37;;;;;;;4.57;3.93;;;8.60;99.90;;;;;;5025108;28;20199;-58
2023/01/08 00:54:02;;;;;;;3.83;3.53;;;8.50;99.90;;;;;;5011863;28;20195;-58
2023/01/08 00:56:28;;;;;;;4.00;3.33;;;8.50;99.90;;;;;;5021690;28;21077;-58
2023/01/08 00:58:54;;;;;;;4.20;3.90;;;8.50;99.90;;;;;;5027730;28;20597;-58
2023/01/08 01:01:20;;;;;;;4.57;4.17;;;8.40;99.90;;;;;;5029390;28;20202;-58
2023/01/08 01:03:45;;;;;;;3.83;3.53;;;8.40;99.90;;;;;;5029250;28;20215;-59
2023/01/08 01:06:12;;;;;;;4.10;3.67;;;8.40;99.90;;;;;;5026913;28;20188;-60
2023/01/08 01:08:38;;;;;;;4.27;3.87;;;8.40;99.90;;;;;;5027947;28;20191;-60
2023/01/08 01:11:08;;;;;;;4.77;4.37;;;8.40;99.90;;;;;;5028282;28;20210;-59
2023/01/08 01:13:33;;;;;;;3.60;3.30;;;8.30;99.90;;;;;;5028628;28;20488;-57
2023/01/08 01:16:00;;;;;;;4.43;3.97;;;8.30;99.90;;;;;;5027885;28;20210;-57
2023/01/08 01:18:26;;;;;;;5.03;4.13;;;8.30;99.90;;;;;;5027715;28;20214;-57
2023/01/08 01:20:52;;;;;;;4.10;3.73;;;8.20;99.90;;;;;;5034156;28;20206;-58
2023/01/08 01:23:17;;;;;;;5.67;5.13;;;8.20;99.90;;;;;;5038351;28;20261;-58
2023/01/08 01:25:43;;;;;;;4.60;4.20;;;8.20;99.90;;;;;;5038399;28;20284;-58
2023/01/08 01:28:08;;;;;;;4.83;4.33;;;8.20;99.90;;;;;;5038122;28;20630;-59
2023/01/08 01:30:34;;;;;;;4.73;4.27;;;8.10;99.90;;;;;;5038130;28;20194;-57
2023/01/08 01:32:59;;;;;;;4.30;4.00;;;8.10;99.90;;;;;;5027552;28;20673;-60
2023/01/08 01:35:25;;;;;;;4.83;4.43;;;8.10;99.90;;;;;;5027703;28;20195;-57
2023/01/08 01:37:50;;;;;;;5.13;4.63;;;8.00;99.90;;;;;;5028058;28;20917;-57
2023/01/08 01:40:16;;;;;;;5.87;5.37;;;8.00;99.90;;;;;;5027582;28;20238;-60
2023/01/08 01:42:42;;;;;;;4.80;4.40;;;7.90;99.90;;;;;;5027341;28;20425;-59
2023/01/08 01:45:21;;;;;;;4.90;4.13;;;7.90;99.90;;;;;;5025102;28;20212;-59
2023/01/08 01:47:54;;;;;;;5.20;4.70;;;7.90;99.90;;;;;;5028486;28;20556;-60
2023/01/08 01:50:38;;;;;;;4.60;4.17;;;7.80;99.90;;;;;;5025949;28;20240;-59
2023/01/08 01:53:11;;;;;;;5.13;4.57;;;7.80;99.90;;;;;;5025438;28;20199;-59
2023/01/08 01:55:42;;;;;;;4.20;3.83;;;7.80;99.90;;;;;;5026234;28;20919;-58
2023/01/08 01:58:13;;;;;;;5.73;5.33;;;7.70;99.90;;;;;;5028383;28;20213;-61
2023/01/08 02:00:38;;;;;;;5.00;4.40;;;7.70;99.90;;;;;;5027274;28;20306;-57
2023/01/08 02:03:05;;;;;;;5.13;4.70;;;7.60;99.90;;;;;;5027676;28;21011;-58
2023/01/08 02:06:06;;;;;;;5.77;5.27;;;7.60;99.90;;;;;;5023588;28;20206;-58
2023/01/08 02:08:45;;;;;;;5.60;4.90;;;7.50;99.90;;;;;;5028678;28;20302;-58
2023/01/08 02:11:16;;;;;;;5.27;4.73;;;7.50;99.90;;;;;;5032908;28;20647;-58
2023/01/08 02:13:49;;;;;;;6.43;5.13;;;7.50;99.90;;;;;;5037339;28;20242;-58
2023/01/08 02:16:31;;;;;;;5.43;4.93;;;7.50;99.90;;;;;;5036355;28;20207;-57
2023/01/08 02:19:03;;;;;;;6.00;5.00;;;7.40;99.90;;;;;;5037553;28;20704;-58
2023/01/08 02:21:31;;;;;;;5.30;4.80;;;7.40;99.90;;;;;;5036735;28;20211;-60
2023/01/08 02:24:29;;;;;;;5.13;4.63;;;7.40;99.90;;;;;;5037177;28;20302;-57
2023/01/08 02:26:58;;;;;;;6.23;5.53;;;7.40;99.90;;;;;;5033468;28;20203;-57
2023/01/08 02:29:27;;;;;;;7.03;6.23;;;7.30;99.90;;;;;;5023796;28;20569;-57
2023/01/08 02:31:53;;;;;;;5.77;5.17;;;7.30;99.90;;;;;;5027774;28;20203;-58
2023/01/08 02:34:18;;;;;;;7.20;6.50;;;7.30;99.90;;;;;;5027888;28;20693;-58
2023/01/08 02:36:47;;;;;;;6.53;5.90;;;7.20;99.90;;;;;;5026382;28;20290;-58
2023/01/08 02:39:18;;;;;;;5.63;5.03;;;7.20;99.90;;;;;;5027179;28;20279;-57
2023/01/08 02:42:19;;;;;;;6.90;6.20;;;7.20;99.90;;;;;;5007868;28;20859;-57
2023/01/08 02:45:29;;;;;;;7.27;6.37;;;7.20;99.90;;;;;;5017157;28;20253;-58
2023/01/08 02:48:12;;;;;;;6.17;5.57;;;7.20;99.90;;;;;;5013708;28;20206;-58
2023/01/08 02:51:00;;;;;;;6.67;6.10;;;7.10;99.90;;;;;;5027506;28;20191;-57
2023/01/08 02:53:38;;;;;;;7.27;6.37;;;7.10;99.90;;;;;;5024625;28;20248;-59
2023/01/08 02:56:07;;;;;;;6.37;5.87;;;7.10;99.90;;;;;;5018577;28;20537;-58
2023/01/08 02:58:35;;;;;;;9.73;6.90;;;7.10;99.90;;;;;;5027328;28;20226;-58
2023/01/08 03:01:02;;;;;;;6.43;5.90;;;7.10;99.90;;;;;;5026759;28;20264;-58
2023/01/08 03:03:29;;;;;;;6.73;6.00;;;7.10;99.90;;;;;;5027251;28;20222;-59
2023/01/08 03:05:58;;;;;;;7.00;5.60;;;7.00;99.90;;;;;;5026452;28;20198;-57
2023/01/08 03:08:25;;;;;;;6.70;6.00;;;7.00;99.90;;;;;;5026694;28;20672;-59
2023/01/08 03:11:03;;;;;;;6.37;5.67;;;7.00;99.90;;;;;;5026627;28;20213;-60
2023/01/08 03:13:40;;;;;;;5.60;4.83;;;7.00;99.90;;;;;;5020129;28;20207;-59
2023/01/08 03:16:10;;;;;;;6.97;6.27;;;6.90;99.90;;;;;;5027226;28;20206;-60
2023/01/08 03:18:48;;;;;;;7.90;6.87;;;6.90;99.90;;;;;;5019546;28;20213;-59
2023/01/08 03:21:16;;;;;;;6.63;5.97;;;6.90;99.90;;;;;;5026081;28;20241;-58
2023/01/08 03:23:43;;;;;;;8.83;6.13;;;6.90;99.90;;;;;;5026294;28;20264;-57
2023/01/08 03:26:11;;;;;;;7.53;6.83;;;6.90;99.90;;;;;;5024893;28;20199;-57
2023/01/08 03:28:43;;;;;;;6.40;5.80;;;6.90;99.90;;;;;;5029862;28;20225;-58
2023/01/08 03:31:08;;;;;;;6.53;5.90;;;6.90;99.90;;;;;;5027035;28;20645;-57
2023/01/08 03:33:35;;;;;;;6.07;5.53;;;6.90;99.90;;;;;;5033826;28;20207;-58
2023/01/08 03:36:03;;;;;;;9.23;6.00;;;6.90;99.90;;;;;;5030920;28;20633;-58
2023/01/08 03:38:33;;;;;;;7.80;7.07;;;6.80;99.90;;;;;;5031537;28;20210;-58
2023/01/08 03:41:10;;;;;;;7.03;6.13;;;6.80;99.90;;;;;;5039761;28;20724;-58
2023/01/08 03:43:35;;;;;;;6.90;6.00;;;6.80;99.90;;;;;;5039706;28;20237;-57
2023/01/08 03:46:06;;;;;;;7.47;6.63;;;6.80;99.90;;;;;;5038180;28;20567;-56
2023/01/08 03:48:34;;;;;;;6.73;6.03;;;6.80;99.90;;;;;;5029379;28;20209;-57
2023/01/08 03:50:59;;;;;;;6.73;5.93;;;6.80;99.90;;;;;;5028812;28;20206;-58
2023/01/08 03:53:26;;;;;;;8.30;6.93;;;6.80;99.90;;;;;;5030414;28;20299;-57
2023/01/08 03:55:51;;;;;;;6.33;5.73;;;6.80;99.90;;;;;;5030045;28;20198;-57
2023/01/08 03:58:16;;;;;;;7.90;7.20;;;6.70;99.90;;;;;;5029936;28;20211;-58
2023/01/08 04:00:42;;;;;;;7.67;6.97;;;6.80;99.90;;;;;;5029845;28;20214;-59
2023/01/08 04:03:08;;;;;;;7.10;6.50;;;6.80;99.90;;;;;;5034405;28;20218;-59
2023/01/08 04:05:33;;;;;;;6.77;6.00;;;6.80;99.90;;;;;;5038099;28;20743;-58
2023/01/08 04:07:59;;;;;;;6.90;6.27;;;6.70;99.90;;;;;;5039028;28;20191;-56
2023/01/08 04:10:25;;;;;;;6.60;6.00;;;6.70;99.90;;;;;;5038616;28;20659;-57
2023/01/08 04:12:50;;;;;;;7.10;6.47;;;6.80;99.90;;;;;;5038067;28;20625;-57
2023/01/08 04:15:16;;;;;;;6.20;5.60;;;6.70;99.90;;;;;;5039385;28;20197;-57
2023/01/08 04:17:41;;;;;;;7.00;6.30;;;6.70;99.90;;;;;;5039636;28;20191;-57
2023/01/08 04:20:07;;;;;;;6.20;5.60;;;6.70;99.90;;;;;;5036655;28;20249;-57
2023/01/08 04:22:33;;;;;;;7.40;6.60;;;6.70;99.90;;;;;;5039817;28;20203;-57
2023/01/08 04:24:58;;;;;;;6.87;6.17;;;6.70;99.90;;;;;;5039562;28;20615;-57
2023/01/08 04:27:24;;;;;;;8.33;6.87;;;6.60;99.90;;;;;;5039643;28;20195;-58
2023/01/08 04:29:49;;;;;;;7.27;6.63;;;6.60;99.90;;;;;;5039401;28;20298;-58
2023/01/08 04:32:15;;;;;;;6.90;5.50;;;6.60;99.90;;;;;;5039185;28;20191;-57
2023/01/08 04:34:40;;;;;;;7.03;6.33;;;6.60;99.90;;;;;;5038375;28;20203;-57
2023/01/08 04:37:06;;;;;;;7.67;6.97;;;6.60;99.90;;;;;;5034015;28;20202;-57
2023/01/08 04:39:31;;;;;;;6.00;5.40;;;6.60;99.90;;;;;;5026549;28;20302;-57
2023/01/08 04:41:57;;;;;;;7.70;6.53;;;6.60;99.90;;;;;;5037481;28;20929;-57
2023/01/08 04:44:22;;;;;;;6.77;6.07;;;6.60;99.90;;;;;;5038008;28;20230;-57
2023/01/08 04:46:48;;;;;;;5.50;5.03;;;6.60;99.90;;;;;;5039262;28;20276;-57
2023/01/08 04:49:13;;;;;;;5.97;5.37;;;6.60;99.90;;;;;;5037071;28;20297;-57
2023/01/08 04:51:39;;;;;;;8.67;7.60;;;6.60;99.90;;;;;;5036944;28;20667;-57
2023/01/08 04:54:05;;;;;;;7.80;5.93;;;6.50;99.90;;;;;;5027138;28;20199;-58
2023/01/08 04:56:30;;;;;;;6.83;6.23;;;6.60;99.90;;;;;;5028766;28;20195;-58
2023/01/08 04:58:57;;;;;;;7.60;6.90;;;6.60;99.90;;;;;;5028337;28;20729;-58
2023/01/08 05:01:24;;;;;;;7.10;6.40;;;6.60;99.90;;;;;;5026843;28;20708;-57
2023/01/08 05:03:59;;;;;;;6.60;6.00;;;6.70;99.90;;;;;;5029715;28;20546;-57
2023/01/08 05:06:27;;;;;;;6.50;6.00;;;6.70;99.90;;;;;;5028551;28;20236;-57
2023/01/08 05:08:52;;;;;;;6.70;6.00;;;6.70;99.90;;;;;;5023903;28;20685;-57
2023/01/08 05:11:18;;;;;;;5.83;5.33;;;6.70;99.90;;;;;;5028604;28;20195;-57
2023/01/08 05:13:47;;;;;;;7.37;6.60;;;6.70;99.90;;;;;;5028531;28;20631;-58
2023/01/08 05:16:13;;;;;;;6.33;5.67;;;6.80;99.90;;;;;;5027654;28;20226;-57
2023/01/08 05:18:38;;;;;;;6.50;6.00;;;6.80;99.90;;;;;;5017504;28;20767;-57
2023/01/08 05:21:04;;;;;;;7.10;5.93;;;6.80;99.90;;;;;;5011054;28;20207;-57
2023/01/08 05:23:31;;;;;;;6.27;5.67;;;6.80;99.90;;;;;;5028948;28;20622;-57
2023/01/08 05:25:57;;;;;;;6.50;5.77;;;6.90;99.90;;;;;;5029633;28;20276;-57
2023/01/08 05:28:23;;;;;;;6.00;5.40;;;6.90;99.90;;;;;;5028141;28;20206;-57
2023/01/08 05:30:49;;;;;;;5.07;4.57;;;6.90;99.90;;;;;;5028089;28;20198;-57
2023/01/08 05:33:14;;;;;;;5.80;5.20;;;7.00;99.90;;;;;;5026672;28;20203;-59
2023/01/08 05:35:40;;;;;;;6.00;5.40;;;7.00;99.90;;;;;;5028256;28;20289;-57
2023/01/08 05:38:06;;;;;;;6.13;5.60;;;6.90;99.90;;;;;;5029823;28;20203;-58
2023/01/08 05:40:31;;;;;;;6.50;5.90;;;7.00;99.90;;;;;;5037879;28;20682;-58
2023/01/08 05:43:01;;;;;;;7.03;6.33;;;7.00;99.90;;;;;;5037799;28;20218;-57
2023/01/08 05:45:27;;;;;;;6.47;5.53;;;7.00;99.90;;;;;;5036155;28;20207;-57
2023/01/08 05:47:53;;;;;;;6.90;6.20;;;7.10;99.90;;;;;;5038015;28;20211;-58
2023/01/08 05:50:19;;;;;;;6.27;5.67;;;7.20;99.90;;;;;;5037800;28;20225;-58
2023/01/08 05:52:44;;;;;;;6.63;6.00;;;7.30;99.90;;;;;;5037994;28;20923;-58
2023/01/08 05:55:10;;;;;;;6.97;6.37;;;7.30;99.90;;;;;;5037677;28;20557;-58
2023/01/08 05:57:36;;;;;;;6.37;5.83;;;7.40;99.90;;;;;;5038194;28;20202;-58
2023/01/08 06:00:03;;;;;;;5.83;5.23;;;7.40;99.90;;;;;;5035798;28;20187;-58
2023/01/08 06:02:29;;;;;;;6.00;5.50;;;7.40;99.90;;;;;;5037830;28;20203;-58
2023/01/08 06:04:54;;;;;;;6.77;6.07;;;7.50;99.90;;;;;;5037701;28;20268;-57
2023/01/08 06:07:20;;;;;;;5.30;4.80;;;7.50;99.90;;;;;;5037567;28;20257;-57
2023/01/08 06:09:45;;;;;;;5.23;4.63;;;7.50;99.90;;;;;;5035338;28;20226;-57
2023/01/08 06:12:11;;;;;;;4.77;4.37;;;7.50;99.90;;;;;;5036605;28;20195;-57
2023/01/08 06:14:36;;;;;;;6.80;6.20;;;7.60;99.90;;;;;;5037702;28;20280;-58
2023/01/08 06:17:02;;;;;;;6.13;5.53;;;7.60;99.90;;;;;;5037327;28;20194;-58
2023/01/08 06:19:27;;;;;;;6.00;5.50;;;7.60;99.90;;;;;;5037529;28;20198;-58
2023/01/08 06:21:53;;;;;;;6.03;5.47;;;7.70;99.90;;;;;;5037457;28;20295;-58
2023/01/08 06:24:18;;;;;;;5.93;5.17;;;7.70;99.90;;;;;;5035317;28;20218;-58
2023/01/08 06:26:44;;;;;;;7.20;6.13;;;7.70;99.90;;;;;;5036844;28;20199;-57
2023/01/08 06:29:09;;;;;;;4.77;4.30;;;7.70;99.90;;;;;;5037266;28;20595;-58
2023/01/08 06:31:35;;;;;;;6.23;5.43;;;7.70;99.90;;;;;;5037046;28;20278;-58
2023/01/08 06:34:00;;;;;;;6.00;5.43;;;7.70;99.90;;;;;;5037230;28;20198;-58
2023/01/08 06:36:26;;;;;;;4.87;4.37;;;7.70;99.90;;;;;;5035246;28;20210;-57
2023/01/08 06:38:52;;;;;;;5.80;5.20;;;7.70;99.90;;;;;;5036944;28;20194;-58
2023/01/08 06:41:17;;;;;;;5.77;5.17;;;7.70;99.90;;;;;;5036657;28;20237;-58
2023/01/08 06:43:43;;;;;;;5.33;4.83;;;7.70;99.90;;;;;;5037165;28;20736;-58
2023/01/08 06:46:09;;;;;;;6.20;5.60;;;7.70;99.90;;;;;;5036800;28;20186;-57
2023/01/08 06:48:35;;;;;;;4.80;4.40;;;7.70;99.90;;;;;;5036948;28;20204;-58
2023/01/08 06:51:02;;;;;;;5.50;5.00;;;7.70;99.90;;;;;;5036613;28;20202;-58
2023/01/08 06:53:27;;;;;;;5.10;4.67;;;7.80;99.90;;;;;;5036765;28;20997;-58
2023/01/08 06:55:57;;;;;;;6.30;5.73;;;7.70;99.90;;;;;;5035679;28;20225;-58
2023/01/08 06:58:24;;;;;;;5.77;5.27;;;7.80;99.90;;;;;;5036553;28;20238;-58
2023/01/08 07:00:50;;;;;;;5.77;5.17;;;7.80;99.90;;;;;;5031981;28;20260;-57
2023/01/08 07:03:15;;;;;;;6.73;5.73;;;7.80;99.90;;;;;;5035720;28;20756;-57
2023/01/08 07:05:41;;;;;;;5.73;5.07;;;7.80;99.90;;;;;;5036443;28;20225;-56
2023/01/08 07:08:11;;;;;;;6.00;5.40;;;7.80;99.90;;;;;;5035711;28;20281;-58
2023/01/08 07:10:36;;;;;;;5.37;4.87;;;7.80;99.90;;;;;;5036188;28;20199;-58
2023/01/08 07:13:02;;;;;;;6.27;5.17;;;7.80;99.90;;;;;;5035055;28;20205;-58
2023/01/08 07:15:28;;;;;;;9.30;5.60;;;7.80;99.90;;;;;;5036636;28;20220;-58
2023/01/08 07:17:53;;;;;;;5.90;5.27;;;7.90;99.90;;;;;;5036635;28;20542;-57
2023/01/08 07:20:19;;;;;;;5.80;5.30;;;7.90;99.90;;;;;;5036726;28;20283;-58
2023/01/08 07:22:44;;;;;;;5.67;4.97;;;7.90;99.90;;;;;;5036159;28;20210;-57
2023/01/08 07:25:10;;;;;;;5.90;5.30;;;7.90;99.90;;;;;;5019105;28;20226;-59
2023/01/08 07:27:35;;;;;;;4.50;4.10;;;7.90;99.90;;;;;;5012791;28;20230;-57
2023/01/08 07:30:01;;;;;;;5.73;5.03;;;8.00;99.90;;;;;;5034453;28;20659;-58
2023/01/08 07:32:26;;;;;;;4.90;4.50;;;8.00;99.90;;;;;;5027797;28;20302;-58
2023/01/08 07:34:53;;;;;;;5.20;4.70;;;8.00;99.90;;;;;;5018251;28;20211;-57
2023/01/08 07:37:18;;;;;;;5.13;4.67;;;8.00;99.90;;;;;;5008840;28;20221;-57
2023/01/08 07:39:44;;;;;;;5.00;4.57;;;8.00;99.90;;;;;;5024238;28;20194;-57
2023/01/08 07:42:10;;;;;;;5.50;5.00;;;8.00;99.90;;;;;;5024634;28;20681;-57
2023/01/08 07:44:35;;;;;;;5.70;5.20;;;7.90;99.90;;;;;;5025824;28;20272;-57
2023/01/08 07:47:00;;;;;;;5.67;4.97;;;7.80;99.90;;;;;;5026058;28;20199;-57
2023/01/08 07:49:26;;;;;;;5.43;4.93;;;7.80;99.90;;;;;;5025713;28;20277;-58
2023/01/08 07:51:51;;;;;;;6.63;4.50;;;7.80;99.90;;;;;;5030093;28;20660;-58
2023/01/08 07:54:17;;;;;;;5.83;4.57;;;7.70;99.90;;;;;;5019695;28;20297;-56
2023/01/08 07:56:42;;;;;;;5.27;4.77;;;7.80;99.90;;;;;;5026323;28;20214;-55
2023/01/08 07:59:08;;;;;;;4.30;3.90;;;7.80;99.90;;;;;;5026286;28;20211;-57
2023/01/08 08:01:33;;;;;;;5.33;4.90;;;7.80;99.90;;;;;;5028673;28;20628;-57
2023/01/08 08:03:59;;;;;;;5.70;5.20;;;7.80;99.90;;;;;;5026115;28;20218;-57
2023/01/08 08:06:24;;;;;;;5.20;4.80;;;7.80;99.90;;;;;;5025041;28;20213;-58
2023/01/08 08:08:50;;;;;;;6.00;5.17;;;7.80;99.90;;;;;;5025559;28;20570;-59
2023/01/08 08:11:15;;;;;;;5.33;4.83;;;7.80;99.90;;;;;;5025187;28;20196;-58
2023/01/08 08:13:41;;;;;;;5.10;4.70;;;7.80;99.90;;;;;;5024998;28;20286;-58
2023/01/08 08:16:07;;;;;;;5.67;5.10;;;7.80;99.90;;;;;;5025562;28;20725;-57
2023/01/08 08:18:32;;;;;;;6.03;5.40;;;7.80;99.90;;;;;;5026595;28;20460;-59
2023/01/08 08:20:58;;;;;;;5.80;5.30;;;7.80;99.90;;;;;;5029012;28;20365;-57
2023/01/08 08:23:24;;;;;;;4.87;4.47;;;7.80;99.90;;;;;;5029317;28;20207;-57
2023/01/08 08:25:50;;;;;;;5.57;5.07;;;7.80;99.90;;;;;;5028307;28;20607;-57
2023/01/08 08:28:17;;;;;;;5.50;5.00;;;7.80;99.90;;;;;;5029589;28;20539;-57
2023/01/08 08:30:42;;;;;;;5.50;5.00;;;7.80;99.90;;;;;;5029308;28;20565;-57
2023/01/08 08:33:08;;;;;;;5.10;4.70;;;7.80;99.90;;;;;;5029866;28;20199;-57
2023/01/08 08:35:34;;;;;;;6.33;4.83;;;7.80;99.90;;;;;;5029546;28;20311;-57
2023/01/08 08:38:00;;;;;;;4.93;4.53;;;7.80;99.90;;;;;;5026702;28;20203;-57
2023/01/08 08:40:26;;;;;;;5.00;4.60;;;7.80;99.90;;;;;;5029874;28;20205;-57
2023/01/08 08:42:59;;;;;;;5.67;5.07;;;7.80;99.90;;;;;;5038250;28;20206;-57
2023/01/08 08:45:26;;;;;;;5.87;5.37;;;7.90;99.90;;;;;;5037579;28;20611;-57
2023/01/08 08:47:51;;;;;;;6.53;5.87;;;7.90;99.90;;;;;;5036999;28;20186;-58
2023/01/08 08:50:18;;;;;;;6.23;5.63;;;7.90;99.90;;;;;;5038974;28;20205;-57
2023/01/08 08:52:44;;;;;;;5.73;5.17;;;8.00;99.90;;;;;;5039072;28;20195;-57
2023/01/08 08:55:14;;;;;;;7.00;6.17;;;8.00;99.90;;;;;;5038317;28;20950;-57
2023/01/08 08:57:40;;;;;;;5.00;4.60;;;8.00;99.90;;;;;;5036451;28;20291;-58
2023/01/08 09:00:07;;;;;;;5.00;4.57;;;8.10;99.90;;;;;;5038706;28;20672;-58
2023/01/08 09:02:32;;;;;;;6.07;5.53;;;8.10;99.90;;;;;;5038448;28;20541;-57
2023/01/08 09:04:58;;;;;;;7.10;5.37;;;8.10;99.90;;;;;;5033875;28;20217;-58
2023/01/08 09:07:23;;;;;;;5.30;4.80;;;8.10;99.90;;;;;;5038623;28;20244;-58
2023/01/08 09:09:49;;;;;;;5.43;4.80;;;8.10;99.90;;;;;;5036241;28;20686;-58
2023/01/08 09:12:14;;;;;;;5.73;5.00;;;8.20;99.90;;;;;;5038336;28;20206;-58
2023/01/08 09:14:40;;;;;;;5.57;5.07;;;8.20;99.90;;;;;;5038579;28;20207;-59
2023/01/08 09:17:05;;;;;;;5.53;5.00;;;8.20;99.90;;;;;;5038444;28;20198;-59
2023/01/08 09:19:31;;;;;;;5.97;5.47;;;8.20;99.90;;;;;;5038125;28;20223;-58
2023/01/08 09:21:56;;;;;;;5.10;4.37;;;8.30;99.90;;;;;;5036429;28;20207;-57
2023/01/08 09:24:22;;;;;;;4.93;4.43;;;8.30;99.90;;;;;;5009249;28;20220;-60
2023/01/08 09:26:47;;;;;;;6.30;5.20;;;8.30;99.90;;;;;;5022135;28;20204;-58
2023/01/08 09:29:12;;;;;;;4.60;4.20;;;8.40;99.90;;;;;;5037539;28;20206;-58
2023/01/08 09:31:38;;;;;;;5.53;4.90;;;8.40;99.90;;;;;;5038048;28;20615;-57
2023/01/08 09:34:03;;;;;;;7.03;5.07;;;8.40;99.90;;;;;;5036649;28;20195;-60
2023/01/08 09:36:29;;;;;;;5.47;4.97;;;8.30;99.90;;;;;;5020959;28;20614;-71
2023/01/08 09:38:55;;;;;;;5.47;5.07;;;8.30;99.90;;;;;;5020793;28;20577;-63
2023/01/08 09:41:25;;;;;;;5.30;4.50;;;8.40;99.90;;;;;;5012772;28;20714;-64
2023/01/08 09:43:52;;;;;;;5.73;5.13;;;8.50;99.90;;;;;;5008166;28;20401;-63
2023/01/08 09:46:21;;;;;;;5.83;5.30;;;8.50;99.90;;;;;;5016341;28;20349;-62
2023/01/08 09:48:47;;;;;;;5.03;4.53;;;8.50;99.90;;;;;;5010416;28;20208;-63
2023/01/08 09:51:16;;;;;;;5.67;5.10;;;8.50;99.90;;;;;;5007810;28;20192;-63
2023/01/08 09:53:42;;;;;;;5.10;4.57;;;8.60;99.90;;;;;;5013333;28;20244;-64
2023/01/08 09:56:17;;;;;;;5.70;5.20;;;8.60;99.90;;;;;;5012899;28;20639;-63
2023/01/08 09:58:52;;;;;;;5.60;4.67;;;8.70;99.90;;;;;;5016851;28;20207;-64
2023/01/08 10:01:22;;;;;;;5.93;5.40;;;8.70;99.90;;;;;;5014395;28;20716;-63
2023/01/08 10:03:56;;;;;;;5.70;5.17;;;8.70;99.90;;;;;;5009071;28;20212;-62
2023/01/08 10:06:22;;;;;;;4.30;4.00;;;8.70;99.90;;;;;;5011154;28;20896;-65
2023/01/08 10:08:49;;;;;;;4.40;4.00;;;8.70;99.90;;;;;;5012066;28;20200;-63
2023/01/08 10:11:16;;;;;;;4.57;4.17;;;8.60;99.90;;;;;;5010325;28;20230;-63
2023/01/08 10:13:48;;;;;;;5.50;4.97;;;8.60;99.90;;;;;;5010547;28;20253;-64
2023/01/08 10:16:32;;;;;;;5.27;4.73;;;8.60;99.90;;;;;;5019106;28;20210;-68
2023/01/08 10:18:58;;;;;;;5.70;5.20;;;8.60;99.90;;;;;;5026723;28;20283;-68
2023/01/08 10:21:29;;;;;;;5.20;4.77;;;8.50;99.90;;;;;;5009771;28;20270;-67
2023/01/08 10:23:55;;;;;;;6.17;5.17;;;8.40;99.90;;;;;;5011443;28;20265;-69
2023/01/08 10:26:31;;;;;;;5.67;5.17;;;8.40;99.90;;;;;;5012010;28;20208;-69
2023/01/08 10:29:16;;;;;;;5.40;4.90;;;8.30;99.90;;;;;;5010301;28;20227;-68
2023/01/08 10:31:53;;;;;;;5.77;5.20;;;8.30;99.90;;;;;;5005704;28;20704;-68
2023/01/08 10:34:45;;;;;;;5.50;5.00;;;8.30;99.90;;;;;;5007568;28;20215;-68
2023/01/08 10:37:27;;;;;;;6.50;5.07;;;8.20;99.90;;;;;;5011193;28;20215;-68
2023/01/08 10:40:07;;;;;;;5.53;5.00;;;8.20;99.90;;;;;;5027641;28;20248;-68
2023/01/08 10:42:35;;;;;;;5.57;5.07;;;8.20;99.90;;;;;;5035711;28;20458;-68
2023/01/08 10:45:12;;;;;;;6.47;5.87;;;8.20;99.90;;;;;;5036463;28;20214;-68
2023/01/08 10:47:38;;;;;;;6.33;5.40;;;8.30;99.90;;;;;;5013603;28;20282;-69
2023/01/08 10:50:12;;;;;;;8.93;6.80;;;8.30;99.90;;;;;;5010128;28;20382;-69
2023/01/08 10:52:38;;;;;;;6.13;5.63;;;8.40;99.90;;;;;;5010365;28;20714;-69
2023/01/08 10:55:11;;;;;;;5.10;4.60;;;8.40;99.90;;;;;;5010504;28;20229;-69
2023/01/08 10:57:52;;;;;;;8.00;6.23;;;8.50;99.90;;;;;;5008261;28;20209;-66
2023/01/08 11:00:23;;;;;;;7.23;6.53;;;8.50;99.90;;;;;;5013166;28;21066;-68
2023/01/08 11:02:49;;;;;;;5.93;5.43;;;8.50;99.90;;;;;;5008613;28;20317;-70
2023/01/08 11:05:15;;;;;;;6.43;5.83;;;8.50;99.90;;;;;;5008242;28;20231;-69
2023/01/08 11:07:41;;;;;;;5.20;4.80;;;8.60;99.90;;;;;;5009525;28;20200;-74
2023/01/08 11:10:20;;;;;;;8.53;5.80;;;8.60;99.90;;;;;;5008974;28;20200;-69
2023/01/08 11:12:46;;;;;;;7.80;6.50;;;8.70;99.90;;;;;;5007779;28;20273;-73
2023/01/08 11:15:16;;;;;;;7.20;5.70;;;8.70;99.90;;;;;;5009293;28;20239;-69
2023/01/08 11:17:42;;;;;;;7.43;5.80;;;8.90;99.90;;;;;;5020591;28;20209;-79
2023/01/08 11:20:29;;;;;;;5.27;4.87;;;9.00;99.90;;;;;;5040271;28;20203;-56
2023/01/08 11:23:06;;;;;;;6.10;5.60;;;9.40;99.90;;;;;;5006970;28;20211;-56
2023/01/08 11:25:33;;;;;;;6.00;5.40;;;9.60;99.90;;;;;;5012539;28;20195;-57
2023/01/08 11:28:01;;;;;;;5.50;5.00;;;9.90;99.90;;;;;;5010859;28;20234;-57
2023/01/08 11:30:31;;;;;;;5.47;4.97;;;10.10;99.90;;;;;;5009722;28;20204;-56
2023/01/08 11:33:10;;;;;;;5.53;5.13;;;10.00;99.90;;;;;;5011578;28;20207;-57
2023/01/08 11:35:41;;;;;;;7.97;4.90;;;10.00;99.90;;;;;;5006733;28;20204;-57
2023/01/08 11:38:10;;;;;;;6.47;5.27;;;10.10;99.90;;;;;;5007513;28;20244;-57
2023/01/08 11:40:35;;;;;;;5.20;4.70;;;10.10;99.90;;;;;;5022207;28;20246;-62
2023/01/08 11:43:29;;;;;;;6.10;4.77;;;10.20;99.90;;;;;;5035515;28;20693;-57
2023/01/08 11:46:37;;;;;;;5.00;4.60;;;10.30;99.90;;;;;;5035774;28;20211;-57
2023/01/08 11:49:20;;;;;;;7.83;4.80;;;10.40;99.90;;;;;;5019880;28;20290;-57
2023/01/08 11:51:53;;;;;;;5.47;4.97;;;10.40;99.90;;;;;;5035164;28;20287;-57
2023/01/08 11:54:47;;;;;;;4.33;3.97;;;10.60;99.90;;;;;;5036664;28;20308;-57
2023/01/08 11:57:33;;;;;;;5.17;4.77;;;10.70;99.90;;;;;;5015261;28;20327;-56
2023/01/08 12:00:15;;;;;;;5.27;4.77;;;10.70;99.90;;;;;;5026277;28;20247;-56
2023/01/08 12:02:53;;;;;;;4.83;4.40;;;10.60;99.90;;;;;;5039290;28;20246;-56
2023/01/08 12:05:45;;;;;;;5.87;5.37;;;10.60;99.90;;;;;;5032294;28;20211;-55
2023/01/08 12:08:34;;;;;;;4.87;4.43;;;10.70;99.90;;;;;;5021419;28;20596;-55
2023/01/08 12:11:05;;;;;;;7.20;5.40;;;10.70;99.90;;;;;;5015337;28;20201;-56
2023/01/08 12:14:07;;;;;;;4.60;4.20;;;10.60;99.90;;;;;;5010530;28;20249;-56
2023/01/08 12:17:10;;;;;;;4.90;4.50;;;10.70;99.90;;;;;;5021678;28;20198;-57
2023/01/08 12:20:13;;;;;;;5.73;5.23;;;10.70;99.90;;;;;;5014352;28;20212;-56
2023/01/08 12:23:26;;;;;;;5.87;4.90;;;10.60;99.90;;;;;;5025529;28;20214;-57
2023/01/08 12:26:10;;;;;;;4.50;4.10;;;10.60;99.90;;;;;;5033643;28;20894;-58
2023/01/08 12:28:43;;;;;;;5.13;4.60;;;10.70;99.90;;;;;;5038885;28;20208;-56
2023/01/08 12:31:30;;;;;;;4.67;4.27;;;10.70;99.90;;;;;;5039109;28;20202;-61
2023/01/08 12:34:21;;;;;;;5.20;4.63;;;10.70;99.90;;;;;;5024609;28;20214;-61
2023/01/08 12:36:51;;;;;;;4.57;4.17;;;10.80;99.90;;;;;;5033793;28;20227;-62
2023/01/08 12:39:26;;;;;;;4.70;4.20;;;10.80;99.90;;;;;;5035835;28;20203;-65
2023/01/08 12:41:55;;;;;;;4.93;4.53;;;10.70;99.90;;;;;;5024706;28;20301;-58
2023/01/08 12:44:27;;;;;;;5.20;4.70;;;10.60;99.90;;;;;;5038908;28;20705;-58
2023/01/08 12:46:57;;;;;;;6.63;4.60;;;10.80;99.90;;;;;;5022642;28;20204;-58
2023/01/08 12:49:50;;;;;;;4.90;4.47;;;10.80;99.90;;;;;;5011280;28;20212;-58
2023/01/08 12:52:26;;;;;;;6.07;5.17;;;10.80;99.90;;;;;;5037269;28;20203;-58
2023/01/08 12:55:13;;;;;;;4.53;4.20;;;10.80;99.90;;;;;;5039126;28;20318;-56
2023/01/08 12:58:12;;;;;;;5.30;4.80;;;10.80;99.90;;;;;;5038737;28;20338;-57
2023/01/08 13:00:55;;;;;;;7.00;5.60;;;10.70;99.90;;;;;;5038804;28;20211;-57
2023/01/08 13:03:25;;;;;;;5.23;4.73;;;10.70;99.90;;;;;;5038319;28;20211;-57
2023/01/08 13:05:51;;;;;;;5.10;4.70;;;10.60;99.90;;;;;;5016325;28;20202;-56
2023/01/08 13:08:33;;;;;;;6.07;5.23;;;10.50;99.90;;;;;;5010317;28;20682;-56